Time;durP1;ratioP1;P1;durP2;ratioP2;P2;SDS_P1;SDS_P2;PMS_P1;PMS_P2;Temp;Humidity;BMP_temperature;BMP_pressure;BME280_temperature;BME280_humidity;BME280_pressure;Samples;Min_cycle;Max_cycle;Signal;HPM_P1;HPM_P2
2022/10/15 00:02:41;;;;;;;46.77;37.00;;;14.00;99.90;;;;;;6274887;28;20703;-59
2022/10/15 00:05:44;;;;;;;43.97;37.50;;;14.00;99.90;;;;;;6274721;28;20805;-59
2022/10/15 00:08:48;;;;;;;49.60;41.03;;;13.90;99.90;;;;;;6274429;28;20470;-59
2022/10/15 00:11:51;;;;;;;52.47;40.50;;;13.90;99.90;;;;;;6274911;28;20486;-59
2022/10/15 00:14:55;;;;;;;51.60;40.63;;;13.90;99.90;;;;;;6274679;28;20470;-59
2022/10/15 00:18:00;;;;;;;55.93;41.67;;;13.80;99.90;;;;;;6273654;28;20783;-59
2022/10/15 00:21:06;;;;;;;45.53;38.53;;;13.80;99.90;;;;;;6273816;28;20794;-60
2022/10/15 00:24:09;;;;;;;49.30;40.83;;;13.80;99.90;;;;;;6273781;28;20470;-59
2022/10/15 00:27:13;;;;;;;48.60;40.90;;;13.70;99.90;;;;;;6274656;28;20470;-60
2022/10/15 00:30:16;;;;;;;46.53;38.63;;;13.70;99.90;;;;;;6274232;28;20470;-58
2022/10/15 00:33:21;;;;;;;45.37;38.87;;;13.80;99.90;;;;;;6274422;28;20475;-59
2022/10/15 00:36:26;;;;;;;44.27;39.47;;;13.70;99.90;;;;;;6274188;28;20486;-59
2022/10/15 00:39:29;;;;;;;47.37;37.60;;;13.70;99.90;;;;;;6274780;28;20597;-59
2022/10/15 00:42:32;;;;;;;47.70;39.20;;;13.60;99.90;;;;;;6273875;28;20844;-59
2022/10/15 00:45:36;;;;;;;48.07;39.40;;;13.60;99.90;;;;;;6274487;28;20505;-59
2022/10/15 00:48:41;;;;;;;52.20;39.07;;;13.60;99.90;;;;;;6273353;28;20478;-59
2022/10/15 00:51:47;;;;;;;44.00;35.40;;;13.60;99.90;;;;;;6274455;28;20478;-59
2022/10/15 00:54:55;;;;;;;49.50;38.27;;;13.60;99.90;;;;;;6260305;28;20490;-59
2022/10/15 00:58:02;;;;;;;44.80;36.77;;;13.50;99.90;;;;;;6275239;28;20475;-59
2022/10/15 01:01:06;;;;;;;53.53;38.77;;;13.50;99.90;;;;;;6273644;28;20477;-59
2022/10/15 01:04:11;;;;;;;47.70;38.53;;;13.50;99.90;;;;;;6272605;28;20572;-59
2022/10/15 01:07:14;;;;;;;51.30;38.33;;;13.40;99.90;;;;;;6273049;28;20470;-59
2022/10/15 01:10:20;;;;;;;45.57;38.70;;;13.40;99.90;;;;;;6273740;28;20485;-59
2022/10/15 01:13:35;;;;;;;44.40;36.97;;;13.40;99.90;;;;;;6273675;28;20967;-58
2022/10/15 01:16:46;;;;;;;44.47;38.07;;;13.40;99.90;;;;;;6273872;28;20470;-58
2022/10/15 01:20:24;;;;;;;49.17;37.43;;;13.30;99.90;;;;;;6273896;28;20486;-58
2022/10/15 01:24:14;;;;;;;42.70;36.57;;;13.40;99.90;;;;;;6274147;28;20523;-58
2022/10/15 01:27:30;;;;;;;43.50;36.17;;;13.40;99.90;;;;;;6273423;28;20482;-58
2022/10/15 01:30:38;;;;;;;42.43;37.37;;;13.30;99.90;;;;;;6273929;28;20967;-59
2022/10/15 01:33:45;;;;;;;40.93;35.13;;;13.40;99.90;;;;;;6273690;28;20482;-59
2022/10/15 01:36:53;;;;;;;43.07;35.30;;;13.30;99.90;;;;;;6273893;28;20493;-59
2022/10/15 01:40:07;;;;;;;42.00;35.77;;;13.30;99.90;;;;;;6273648;28;20474;-59
2022/10/15 01:43:15;;;;;;;45.10;34.40;;;13.20;99.90;;;;;;6273666;28;20491;-59
2022/10/15 01:46:27;;;;;;;39.07;33.83;;;13.20;99.90;;;;;;6273238;28;20968;-59
2022/10/15 01:49:34;;;;;;;46.30;34.63;;;13.20;99.90;;;;;;6273334;28;20493;-59
2022/10/15 01:52:40;;;;;;;42.97;34.67;;;13.20;99.90;;;;;;6273711;28;20536;-59
2022/10/15 01:55:46;;;;;;;41.10;35.40;;;13.20;99.90;;;;;;6269125;28;20486;-59
2022/10/15 01:58:52;;;;;;;45.60;35.03;;;13.20;99.90;;;;;;6274824;28;20479;-58
2022/10/15 02:01:58;;;;;;;45.10;35.90;;;13.30;99.90;;;;;;6277830;28;20473;-59
2022/10/15 02:05:01;;;;;;;42.70;35.33;;;13.20;99.90;;;;;;6277541;28;20446;-59
2022/10/15 02:08:13;;;;;;;42.13;34.00;;;13.20;99.90;;;;;;6277295;28;20485;-59
2022/10/15 02:11:18;;;;;;;38.67;34.07;;;13.30;99.90;;;;;;6277821;28;20569;-59
2022/10/15 02:14:29;;;;;;;40.70;34.30;;;13.30;99.90;;;;;;6277688;28;20801;-59
2022/10/15 02:17:39;;;;;;;45.83;35.10;;;13.30;99.90;;;;;;6277514;28;20517;-59
2022/10/15 02:20:49;;;;;;;46.83;37.47;;;13.30;99.90;;;;;;6277206;28;20491;-59
2022/10/15 02:23:56;;;;;;;43.57;35.10;;;13.30;99.90;;;;;;6277740;28;20485;-59
2022/10/15 02:27:02;;;;;;;46.10;36.53;;;13.30;99.90;;;;;;6276705;28;20930;-59
2022/10/15 02:30:09;;;;;;;42.57;34.97;;;13.30;99.90;;;;;;6277650;28;20470;-59
2022/10/15 02:33:15;;;;;;;46.80;37.30;;;13.30;99.90;;;;;;6276853;28;20490;-59
2022/10/15 02:36:19;;;;;;;41.77;33.83;;;13.30;99.90;;;;;;6277332;28;20474;-59
2022/10/15 02:39:24;;;;;;;40.40;34.03;;;13.30;99.90;;;;;;6277336;28;20466;-59
2022/10/15 02:42:28;;;;;;;46.10;36.87;;;13.30;99.90;;;;;;6276349;28;20471;-59
2022/10/15 02:45:31;;;;;;;47.77;36.97;;;13.30;99.90;;;;;;6276885;28;20482;-59
2022/10/15 02:48:36;;;;;;;46.17;36.03;;;13.30;99.90;;;;;;6277249;28;20545;-59
2022/10/15 02:51:39;;;;;;;48.43;38.00;;;13.30;99.90;;;;;;6277383;28;20485;-60
2022/10/15 02:54:43;;;;;;;44.03;36.77;;;13.30;99.90;;;;;;6277128;28;20478;-59
2022/10/15 02:57:46;;;;;;;49.57;37.97;;;13.20;99.90;;;;;;6268076;28;20497;-59
2022/10/15 03:00:49;;;;;;;48.73;37.27;;;13.20;99.90;;;;;;6276665;28;20474;-58
2022/10/15 03:03:54;;;;;;;46.87;37.30;;;13.20;99.90;;;;;;6275797;28;20981;-59
2022/10/15 03:06:57;;;;;;;44.17;36.63;;;13.20;99.90;;;;;;6276353;28;20470;-60
2022/10/15 03:10:00;;;;;;;45.23;38.63;;;13.20;99.90;;;;;;6275123;28;20471;-59
2022/10/15 03:13:04;;;;;;;50.87;37.93;;;13.10;99.90;;;;;;6276130;28;20589;-59
2022/10/15 03:16:09;;;;;;;46.33;37.87;;;13.20;99.90;;;;;;6276387;28;20981;-59
2022/10/15 03:19:14;;;;;;;48.90;38.93;;;13.20;99.90;;;;;;6275863;28;20485;-59
2022/10/15 03:22:18;;;;;;;47.43;35.77;;;13.20;99.90;;;;;;6275705;28;20795;-59
2022/10/15 03:25:21;;;;;;;50.63;39.53;;;13.10;99.90;;;;;;6275799;28;20481;-59
2022/10/15 03:28:25;;;;;;;52.53;40.87;;;13.10;99.90;;;;;;6275811;28;20874;-59
2022/10/15 03:31:28;;;;;;;52.53;39.60;;;13.00;99.90;;;;;;6275351;28;20489;-59
2022/10/15 03:34:33;;;;;;;49.33;41.27;;;13.00;99.90;;;;;;6275373;28;20487;-59
2022/10/15 03:37:36;;;;;;;53.00;40.60;;;13.00;99.90;;;;;;6275620;28;20474;-59
2022/10/15 03:40:39;;;;;;;52.23;42.90;;;12.90;99.90;;;;;;6275115;28;20489;-59
2022/10/15 03:43:43;;;;;;;55.43;42.93;;;12.90;99.90;;;;;;6275198;28;20828;-59
2022/10/15 03:46:46;;;;;;;51.37;42.30;;;12.90;99.90;;;;;;6274935;28;20806;-59
2022/10/15 03:49:51;;;;;;;50.17;40.73;;;12.90;99.90;;;;;;6275261;28;20479;-60
2022/10/15 03:52:54;;;;;;;54.57;42.13;;;13.00;99.90;;;;;;6274736;28;20836;-59
2022/10/15 03:56:03;;;;;;;53.60;43.80;;;12.90;99.90;;;;;;6275080;28;20510;-59
2022/10/15 03:59:07;;;;;;;55.47;43.80;;;12.90;99.90;;;;;;6275031;28;20873;-59
2022/10/15 04:02:10;;;;;;;55.23;44.83;;;12.90;99.90;;;;;;6274774;28;20466;-60
2022/10/15 04:05:14;;;;;;;52.13;40.30;;;12.90;99.90;;;;;;6274912;28;20500;-59
2022/10/15 04:08:18;;;;;;;51.03;40.77;;;13.00;99.90;;;;;;6274932;28;20482;-59
2022/10/15 04:11:21;;;;;;;58.73;44.27;;;12.90;99.90;;;;;;6274578;28;20474;-59
2022/10/15 04:14:24;;;;;;;48.80;40.37;;;12.90;99.90;;;;;;6274644;28;20935;-59
2022/10/15 04:17:28;;;;;;;48.90;41.93;;;13.00;99.90;;;;;;6275109;28;20480;-59
2022/10/15 04:20:32;;;;;;;49.87;41.30;;;13.10;99.90;;;;;;6274801;28;20480;-59
2022/10/15 04:23:36;;;;;;;49.60;41.10;;;13.10;99.90;;;;;;6274083;28;20772;-59
2022/10/15 04:26:39;;;;;;;47.00;38.87;;;13.20;99.90;;;;;;6274239;28;20970;-59
2022/10/15 04:29:42;;;;;;;49.63;39.83;;;13.20;99.90;;;;;;6274614;28;20470;-59
2022/10/15 04:32:46;;;;;;;50.00;39.73;;;13.20;99.90;;;;;;6273936;28;20894;-59
2022/10/15 04:35:58;;;;;;;48.97;39.43;;;13.20;99.90;;;;;;6274402;28;20960;-58
2022/10/15 04:39:02;;;;;;;49.90;40.50;;;13.30;99.90;;;;;;6274299;28;20475;-59
2022/10/15 04:42:05;;;;;;;50.07;40.33;;;13.20;99.90;;;;;;6274768;28;20486;-59
2022/10/15 04:45:10;;;;;;;53.50;41.33;;;13.30;99.90;;;;;;6274808;28;20477;-58
2022/10/15 04:48:13;;;;;;;46.30;39.83;;;13.30;99.90;;;;;;6274427;28;20554;-58
2022/10/15 04:51:20;;;;;;;50.63;40.30;;;13.30;99.90;;;;;;6274228;28;20489;-58
2022/10/15 04:54:23;;;;;;;50.30;41.47;;;13.20;99.90;;;;;;6274354;28;20486;-58
2022/10/15 04:57:26;;;;;;;49.00;40.47;;;13.20;99.90;;;;;;6273953;28;20533;-58
2022/10/15 05:00:29;;;;;;;48.63;41.53;;;13.20;99.90;;;;;;6273775;28;20482;-58
2022/10/15 05:03:34;;;;;;;51.10;41.97;;;13.20;99.90;;;;;;6264214;28;20474;-58
2022/10/15 05:06:43;;;;;;;52.40;40.30;;;13.10;99.90;;;;;;6273678;28;20481;-59
2022/10/15 05:09:46;;;;;;;53.47;41.80;;;13.10;99.90;;;;;;6273735;28;20490;-59
2022/10/15 05:12:49;;;;;;;53.03;40.17;;;13.10;99.90;;;;;;6273763;28;20979;-58
2022/10/15 05:16:08;;;;;;;49.67;41.87;;;13.10;99.90;;;;;;6273406;28;21035;-59
2022/10/15 05:19:12;;;;;;;56.57;43.60;;;13.20;99.90;;;;;;6273651;28;20497;-59
2022/10/15 05:22:16;;;;;;;58.63;41.80;;;13.20;99.90;;;;;;6273308;28;20994;-59
2022/10/15 05:25:19;;;;;;;54.40;42.27;;;13.20;99.90;;;;;;6273220;28;20475;-59
2022/10/15 05:28:22;;;;;;;54.43;42.10;;;13.20;99.90;;;;;;6256978;28;20478;-59
2022/10/15 05:31:28;;;;;;;56.43;42.13;;;13.20;99.90;;;;;;6248624;28;20485;-59
2022/10/15 05:34:32;;;;;;;49.03;40.50;;;13.20;99.90;;;;;;6251066;28;20479;-58
2022/10/15 05:37:37;;;;;;;49.60;39.70;;;13.20;99.90;;;;;;6253378;28;20483;-58
2022/10/15 05:40:40;;;;;;;56.67;43.77;;;13.30;99.90;;;;;;6253486;28;20478;-58
2022/10/15 05:43:43;;;;;;;53.10;42.60;;;13.30;99.90;;;;;;6252928;28;20483;-58
2022/10/15 05:46:46;;;;;;;52.93;42.30;;;13.40;99.90;;;;;;6252969;28;20481;-58
2022/10/15 05:49:50;;;;;;;50.03;42.50;;;13.40;99.90;;;;;;6252855;28;20486;-61
2022/10/15 05:52:56;;;;;;;54.93;41.43;;;13.50;99.90;;;;;;6253350;28;20498;-59
2022/10/15 05:55:59;;;;;;;53.50;40.80;;;13.50;99.90;;;;;;6253303;28;20558;-59
2022/10/15 05:59:03;;;;;;;51.10;41.77;;;13.50;99.90;;;;;;6252486;28;20598;-58
2022/10/15 06:02:06;;;;;;;47.33;38.70;;;13.60;99.90;;;;;;6252626;28;20482;-58
2022/10/15 06:05:10;;;;;;;44.60;35.90;;;13.60;99.90;;;;;;6251064;28;20430;-58
2022/10/15 06:08:15;;;;;;;45.03;36.90;;;13.60;99.90;;;;;;6276882;28;20458;-59
2022/10/15 06:11:19;;;;;;;49.77;37.77;;;13.70;99.90;;;;;;6277359;28;20553;-59
2022/10/15 06:14:23;;;;;;;44.70;37.77;;;13.80;99.90;;;;;;6277421;28;20808;-59
2022/10/15 06:17:26;;;;;;;48.03;36.60;;;13.80;99.90;;;;;;6277445;28;20485;-59
2022/10/15 06:20:29;;;;;;;53.43;39.33;;;13.80;99.90;;;;;;6277601;28;20470;-58
2022/10/15 06:23:35;;;;;;;51.07;41.20;;;13.80;99.90;;;;;;6277299;28;20485;-57
2022/10/15 06:26:38;;;;;;;50.60;42.33;;;13.90;99.90;;;;;;6277494;28;20543;-59
2022/10/15 06:29:41;;;;;;;46.47;40.73;;;13.90;99.90;;;;;;6277086;28;20477;-58
2022/10/15 06:32:48;;;;;;;51.47;41.37;;;14.00;99.90;;;;;;6277230;28;20485;-59
2022/10/15 06:35:51;;;;;;;52.60;41.70;;;13.90;99.90;;;;;;6277307;28;20466;-58
2022/10/15 06:38:56;;;;;;;51.90;40.60;;;13.90;99.90;;;;;;6276754;28;20474;-58
2022/10/15 06:42:00;;;;;;;51.33;40.23;;;14.00;99.90;;;;;;6276552;28;21074;-59
2022/10/15 06:45:03;;;;;;;55.60;41.80;;;13.90;99.90;;;;;;6276187;28;21010;-59
2022/10/15 06:48:07;;;;;;;53.43;42.03;;;13.90;99.90;;;;;;6276436;28;20583;-58
2022/10/15 06:51:12;;;;;;;54.17;43.30;;;13.90;99.90;;;;;;6276891;28;20496;-59
2022/10/15 06:54:17;;;;;;;50.10;41.23;;;13.90;99.90;;;;;;6276666;28;20971;-58
2022/10/15 06:57:20;;;;;;;51.87;43.00;;;13.90;99.90;;;;;;6276806;28;20470;-59
2022/10/15 07:00:25;;;;;;;56.70;43.03;;;14.00;99.90;;;;;;6276574;28;20462;-58
2022/10/15 07:03:29;;;;;;;48.13;40.67;;;14.00;99.90;;;;;;6275974;28;20485;-58
2022/10/15 07:06:34;;;;;;;59.20;45.13;;;14.00;99.90;;;;;;6276607;28;20494;-58
2022/10/15 07:09:38;;;;;;;47.43;41.70;;;14.10;99.90;;;;;;6271822;28;20785;-58
2022/10/15 07:12:41;;;;;;;58.07;44.53;;;14.20;99.90;;;;;;6276308;28;20470;-59
2022/10/15 07:15:45;;;;;;;52.97;43.07;;;14.30;99.90;;;;;;6276275;28;20818;-59
2022/10/15 07:18:48;;;;;;;51.27;42.37;;;14.30;99.90;;;;;;6276523;28;20470;-59
2022/10/15 07:21:51;;;;;;;56.57;43.17;;;14.30;99.90;;;;;;6275625;28;20482;-60
2022/10/15 07:24:56;;;;;;;51.87;42.13;;;14.40;99.90;;;;;;6259491;28;20552;-60
2022/10/15 07:27:59;;;;;;;57.30;44.30;;;14.40;99.90;;;;;;6251398;28;20475;-60
2022/10/15 07:31:04;;;;;;;49.10;40.60;;;14.50;99.90;;;;;;6251102;28;20478;-60
2022/10/15 07:34:07;;;;;;;50.57;41.40;;;14.50;99.90;;;;;;6250993;28;20479;-58
2022/10/15 07:37:11;;;;;;;48.70;42.00;;;14.60;99.90;;;;;;6251039;28;20475;-58
2022/10/15 07:40:16;;;;;;;51.80;43.17;;;14.60;99.90;;;;;;6250967;28;20475;-58
2022/10/15 07:43:19;;;;;;;47.07;40.67;;;14.70;99.90;;;;;;6249933;28;20498;-59
2022/10/15 07:46:22;;;;;;;46.73;40.83;;;14.80;99.90;;;;;;6250107;28;20771;-58
2022/10/15 07:49:26;;;;;;;52.30;41.97;;;14.70;99.90;;;;;;6249436;28;21123;-58
2022/10/15 07:52:30;;;;;;;50.33;41.47;;;14.80;99.90;;;;;;6249370;28;20486;-59
2022/10/15 07:55:35;;;;;;;52.20;42.33;;;14.90;99.90;;;;;;6248778;28;20487;-59
2022/10/15 07:58:39;;;;;;;49.00;42.53;;;15.00;99.90;;;;;;6249151;28;20475;-59
2022/10/15 08:01:42;;;;;;;50.20;41.87;;;15.00;99.90;;;;;;6249169;28;20479;-59
2022/10/15 08:04:50;;;;;;;57.13;44.57;;;15.00;99.90;;;;;;6249381;28;20476;-59
2022/10/15 08:07:53;;;;;;;51.00;42.50;;;15.00;99.90;;;;;;6249024;28;20487;-59
2022/10/15 08:10:58;;;;;;;48.50;42.30;;;15.00;99.90;;;;;;6249292;28;20487;-60
2022/10/15 08:14:02;;;;;;;51.60;42.63;;;15.10;99.90;;;;;;6244997;28;20474;-60
2022/10/15 08:17:06;;;;;;;57.27;42.13;;;15.00;99.90;;;;;;6249076;28;20980;-60
2022/10/15 08:20:10;;;;;;;51.03;42.07;;;15.00;99.90;;;;;;6249073;28;20470;-58
2022/10/15 08:23:15;;;;;;;51.33;40.77;;;15.10;99.90;;;;;;6249111;28;20467;-59
2022/10/15 08:26:20;;;;;;;53.77;43.47;;;15.20;99.90;;;;;;6249757;28;20463;-60
2022/10/15 08:29:24;;;;;;;50.57;44.53;;;15.30;99.90;;;;;;6249325;28;20813;-60
2022/10/15 08:32:27;;;;;;;49.57;42.10;;;15.30;99.90;;;;;;6249168;28;20474;-59
2022/10/15 08:35:34;;;;;;;51.43;40.73;;;15.40;99.90;;;;;;6248859;28;20467;-59
2022/10/15 08:38:37;;;;;;;55.70;44.07;;;15.50;99.90;;;;;;6249035;28;20463;-59
2022/10/15 08:41:47;;;;;;;52.67;43.70;;;15.50;99.90;;;;;;6237265;28;210481;-60
2022/10/15 08:44:55;;;;;;;49.13;42.00;;;15.50;99.90;;;;;;6237106;28;20494;-59
2022/10/15 08:48:02;;;;;;;57.33;47.47;;;15.50;99.90;;;;;;6249603;28;20475;-59
2022/10/15 08:51:10;;;;;;;53.37;43.37;;;15.50;99.90;;;;;;6249700;28;20467;-59
2022/10/15 08:54:17;;;;;;;57.90;45.77;;;15.50;99.90;;;;;;6249263;28;20478;-59
2022/10/15 08:57:34;;;;;;;51.93;44.03;;;15.50;99.90;;;;;;6260567;28;20501;-59
2022/10/15 09:00:43;;;;;;;48.90;41.37;;;15.50;99.90;;;;;;6275237;28;20911;-60
2022/10/15 09:03:56;;;;;;;54.20;46.10;;;15.60;99.90;;;;;;6275625;28;20482;-59
2022/10/15 09:07:08;;;;;;;50.27;44.30;;;15.60;99.90;;;;;;6273178;28;20484;-59
2022/10/15 09:10:17;;;;;;;58.60;46.90;;;15.70;99.90;;;;;;6274972;28;20538;-59
2022/10/15 09:13:27;;;;;;;55.43;46.53;;;15.80;99.90;;;;;;6279122;28;20814;-60
2022/10/15 09:16:35;;;;;;;57.53;50.00;;;15.90;99.90;;;;;;6235130;28;20580;-60
2022/10/15 09:19:38;;;;;;;56.80;45.80;;;16.00;99.90;;;;;;6251157;28;20479;-61
2022/10/15 09:22:42;;;;;;;54.70;44.30;;;16.10;99.90;;;;;;6230042;28;20815;-60
2022/10/15 09:25:53;;;;;;;56.83;45.60;;;16.20;99.90;;;;;;6245382;28;20467;-61
2022/10/15 09:29:03;;;;;;;52.60;42.97;;;16.40;99.90;;;;;;6254418;28;20472;-60
2022/10/15 09:32:18;;;;;;;52.10;45.17;;;16.60;99.90;;;;;;6253754;28;20542;-61
2022/10/15 09:35:26;;;;;;;56.23;45.30;;;16.70;99.90;;;;;;6229443;28;20843;-61
2022/10/15 09:38:40;;;;;;;54.70;46.37;;;16.80;99.90;;;;;;6229149;28;20479;-61
2022/10/15 09:41:55;;;;;;;55.20;46.00;;;16.80;99.90;;;;;;6249270;28;20485;-61
2022/10/15 09:45:02;;;;;;;57.63;47.80;;;16.80;99.90;;;;;;6274910;28;20466;-61
2022/10/15 09:48:15;;;;;;;56.27;46.47;;;16.80;99.90;;;;;;6276029;28;20477;-61
2022/10/15 09:51:25;;;;;;;50.50;42.90;;;16.90;99.90;;;;;;6275028;28;20470;-63
2022/10/15 09:54:37;;;;;;;52.63;46.20;;;17.10;99.90;;;;;;6278188;28;20478;-61
2022/10/15 09:57:42;;;;;;;58.73;47.50;;;17.30;99.90;;;;;;6275030;28;20478;-60
2022/10/15 10:00:59;;;;;;;54.57;47.43;;;17.40;99.90;;;;;;6277932;28;20967;-61
2022/10/15 10:04:17;;;;;;;53.07;45.73;;;17.70;99.90;;;;;;6273675;28;20474;-61
2022/10/15 10:07:30;;;;;;;52.77;45.03;;;17.90;99.90;;;;;;6273296;28;21212;-61
2022/10/15 10:10:35;;;;;;;51.90;43.13;;;18.20;99.90;;;;;;6278343;28;20565;-62
2022/10/15 10:13:45;;;;;;;50.23;43.37;;;18.40;99.90;;;;;;6277968;28;20254;-60
2022/10/15 10:17:06;;;;;;;54.53;47.50;;;18.50;99.90;;;;;;6269651;28;20239;-60
2022/10/15 10:20:18;;;;;;;50.47;44.53;;;18.80;99.90;;;;;;6256764;28;20219;-60
2022/10/15 10:23:23;;;;;;;50.30;44.40;;;19.00;99.90;;;;;;6277879;28;20252;-60
2022/10/15 10:26:27;;;;;;;47.97;42.87;;;19.10;99.90;;;;;;6253626;28;20243;-60
2022/10/15 10:29:37;;;;;;;50.50;45.00;;;18.90;99.90;;;;;;6253058;28;20228;-62
2022/10/15 10:32:43;;;;;;;52.27;45.97;;;18.60;99.90;;;;;;6253393;28;20319;-61
2022/10/15 10:35:50;;;;;;;47.57;42.47;;;18.40;99.90;;;;;;6273380;28;20657;-60
2022/10/15 10:39:01;;;;;;;49.53;44.13;;;18.40;99.90;;;;;;6278939;28;20231;-61
2022/10/15 10:42:06;;;;;;;48.97;42.17;;;18.50;99.90;;;;;;6277853;28;20235;-59
2022/10/15 10:45:19;;;;;;;48.33;43.07;;;18.60;99.90;;;;;;6270599;28;20233;-60
2022/10/15 10:48:25;;;;;;;46.50;41.60;;;18.70;99.90;;;;;;6276958;28;20243;-61
2022/10/15 10:51:29;;;;;;;49.83;42.07;;;18.60;99.90;;;;;;6250854;28;20572;-61
2022/10/15 10:54:34;;;;;;;50.60;45.30;;;18.80;99.90;;;;;;6227479;28;20225;-60
2022/10/15 10:57:45;;;;;;;49.27;42.27;;;18.70;99.90;;;;;;6251617;28;20657;-62
2022/10/15 11:00:51;;;;;;;45.07;40.47;;;18.80;99.90;;;;;;6252170;28;20228;-60
2022/10/15 11:03:55;;;;;;;50.47;44.97;;;18.80;99.90;;;;;;6251134;28;20483;-61
2022/10/15 11:07:02;;;;;;;47.53;40.77;;;18.90;99.90;;;;;;6251233;28;20718;-61
2022/10/15 11:10:12;;;;;;;45.33;40.70;;;19.20;99.90;;;;;;6250902;28;20235;-61
2022/10/15 11:13:34;;;;;;;47.07;42.20;;;19.40;99.90;;;;;;6254466;28;20246;-62
2022/10/15 11:16:48;;;;;;;46.10;41.10;;;19.60;99.90;;;;;;6276990;28;20235;-62
2022/10/15 11:20:01;;;;;;;45.40;40.83;;;19.60;99.90;;;;;;6271024;28;20523;-62
2022/10/15 11:23:40;;;;;;;46.33;41.43;;;19.70;99.90;;;;;;6265353;28;20472;-64
2022/10/15 11:26:59;;;;;;;46.00;41.20;;;19.40;99.90;;;;;;6226077;28;20232;-60
2022/10/15 11:30:27;;;;;;;43.10;38.90;;;19.40;99.90;;;;;;6226762;28;20356;-61
2022/10/15 11:33:58;;;;;;;46.73;41.93;;;19.80;99.90;;;;;;6226571;28;20239;-61
2022/10/15 11:37:18;;;;;;;43.63;38.90;;;20.10;99.90;;;;;;6226477;28;20226;-61
2022/10/15 11:40:33;;;;;;;42.60;38.17;;;20.00;99.90;;;;;;6226493;28;20322;-61
2022/10/15 11:43:52;;;;;;;42.13;37.53;;;19.70;99.90;;;;;;6226180;28;20245;-61
2022/10/15 11:47:08;;;;;;;46.40;41.60;;;19.50;99.90;;;;;;6256333;28;20281;-62
2022/10/15 11:50:22;;;;;;;43.13;38.73;;;19.10;99.90;;;;;;6275057;28;20227;-61
2022/10/15 11:53:43;;;;;;;39.77;35.83;;;18.90;99.90;;;;;;6271610;28;20228;-61
2022/10/15 11:56:49;;;;;;;42.33;38.00;;;18.70;99.90;;;;;;6272520;28;20247;-61
2022/10/15 11:59:56;;;;;;;42.60;38.17;;;18.40;99.90;;;;;;6271013;28;20571;-61
2022/10/15 12:03:05;;;;;;;41.70;36.60;;;18.30;99.90;;;;;;6274448;28;20231;-61
2022/10/15 12:06:13;;;;;;;43.57;38.97;;;18.40;99.90;;;;;;6275135;28;20252;-61
2022/10/15 12:09:25;;;;;;;39.27;35.03;;;18.30;99.90;;;;;;6275388;28;20282;-62
2022/10/15 12:12:39;;;;;;;39.40;35.27;;;18.40;99.90;;;;;;6275324;28;20473;-61
2022/10/15 12:15:48;;;;;;;41.17;35.30;;;18.40;99.90;;;;;;6261948;28;20235;-63
2022/10/15 12:19:00;;;;;;;39.13;35.00;;;18.30;99.90;;;;;;6249516;28;20252;-61
2022/10/15 12:22:11;;;;;;;40.63;36.40;;;18.20;99.90;;;;;;6249406;28;21080;-61
2022/10/15 12:25:45;;;;;;;38.97;34.87;;;18.20;99.90;;;;;;6235760;28;20491;-60
2022/10/15 12:28:50;;;;;;;42.43;38.23;;;18.10;99.90;;;;;;6220943;28;20233;-60
2022/10/15 12:31:55;;;;;;;39.27;35.03;;;18.10;99.90;;;;;;6225196;28;20236;-60
2022/10/15 12:35:01;;;;;;;39.73;35.57;;;18.10;99.90;;;;;;6225520;28;20206;-60
2022/10/15 12:38:29;;;;;;;41.30;36.90;;;18.00;99.90;;;;;;6228949;28;20486;-60
2022/10/15 12:41:40;;;;;;;42.80;38.13;;;18.00;99.90;;;;;;6227671;28;20538;-60
2022/10/15 12:44:48;;;;;;;41.63;36.70;;;17.90;99.90;;;;;;6225631;28;20237;-60
2022/10/15 12:47:54;;;;;;;41.83;37.23;;;17.90;99.90;;;;;;6224866;28;20487;-60
2022/10/15 12:51:38;;;;;;;41.83;37.43;;;17.80;99.90;;;;;;6225056;28;20284;-60
2022/10/15 12:54:42;;;;;;;41.93;37.67;;;17.70;99.90;;;;;;6225152;28;20773;-60
2022/10/15 12:57:55;;;;;;;44.20;38.37;;;17.80;99.90;;;;;;6225177;28;20555;-60
2022/10/15 13:01:06;;;;;;;42.30;38.00;;;17.80;99.90;;;;;;6225424;28;20480;-60
2022/10/15 13:04:10;;;;;;;40.03;35.80;;;18.00;99.90;;;;;;6225377;28;20319;-60
2022/10/15 13:07:14;;;;;;;40.20;36.03;;;18.10;99.90;;;;;;6224690;28;20479;-61
2022/10/15 13:10:21;;;;;;;38.00;33.97;;;18.20;99.90;;;;;;6224828;28;20233;-61
2022/10/15 13:13:28;;;;;;;41.03;36.80;;;18.30;99.90;;;;;;6226525;28;20495;-61
2022/10/15 13:16:31;;;;;;;40.90;36.67;;;18.40;99.90;;;;;;6225985;28;20477;-61
2022/10/15 13:19:39;;;;;;;40.90;36.80;;;18.50;99.90;;;;;;6246681;28;20236;-61
2022/10/15 13:22:42;;;;;;;38.97;34.90;;;18.50;99.90;;;;;;6249406;28;20240;-61
2022/10/15 13:25:45;;;;;;;39.80;35.57;;;18.50;99.90;;;;;;6230743;28;20233;-61
2022/10/15 13:28:51;;;;;;;40.13;35.77;;;18.50;99.90;;;;;;6224969;28;20308;-61
2022/10/15 13:31:57;;;;;;;40.80;36.77;;;18.50;99.90;;;;;;6224915;28;20638;-61
2022/10/15 13:35:02;;;;;;;40.13;35.90;;;18.60;99.90;;;;;;6222218;28;20233;-61
2022/10/15 13:38:05;;;;;;;39.90;35.80;;;18.60;99.90;;;;;;6224623;28;20674;-60
2022/10/15 13:41:09;;;;;;;42.10;37.60;;;18.60;99.90;;;;;;6224387;28;20444;-61
2022/10/15 13:44:22;;;;;;;40.03;36.03;;;18.70;99.90;;;;;;6271583;28;20277;-61
2022/10/15 13:47:27;;;;;;;41.53;37.10;;;18.80;99.90;;;;;;6274070;28;20234;-60
2022/10/15 13:50:33;;;;;;;42.43;38.03;;;18.90;99.90;;;;;;6274399;28;20238;-60
2022/10/15 13:53:40;;;;;;;38.13;34.03;;;19.10;99.90;;;;;;6272985;28;20568;-60
2022/10/15 13:56:46;;;;;;;39.03;35.13;;;19.10;99.90;;;;;;6278132;28;20228;-59
2022/10/15 13:59:53;;;;;;;41.40;37.17;;;19.10;99.90;;;;;;6278000;28;20240;-60
2022/10/15 14:03:18;;;;;;;39.40;35.40;;;19.00;99.90;;;;;;6278258;28;20243;-61
2022/10/15 14:06:23;;;;;;;39.30;35.17;;;19.00;99.90;;;;;;6278300;28;20243;-60
2022/10/15 14:09:29;;;;;;;38.40;34.27;;;19.00;99.90;;;;;;6278383;28;20286;-61
2022/10/15 14:12:33;;;;;;;40.93;36.53;;;19.00;99.90;;;;;;6277969;28;20247;-60
2022/10/15 14:15:54;;;;;;;40.23;35.87;;;19.00;99.90;;;;;;6277966;28;20541;-60
2022/10/15 14:19:09;;;;;;;42.47;37.93;;;19.00;99.90;;;;;;6260359;28;20229;-60
2022/10/15 14:22:18;;;;;;;38.13;34.07;;;19.10;99.90;;;;;;6252597;28;20760;-60
2022/10/15 14:25:24;;;;;;;38.83;34.93;;;19.00;99.90;;;;;;6260203;28;20358;-60
2022/10/15 14:28:29;;;;;;;40.23;36.00;;;18.80;99.90;;;;;;6276713;28;20224;-60
2022/10/15 14:31:39;;;;;;;38.30;34.30;;;18.60;99.90;;;;;;6277156;28;20231;-61
2022/10/15 14:34:42;;;;;;;35.93;32.20;;;18.60;99.90;;;;;;6272627;28;20669;-60
2022/10/15 14:37:46;;;;;;;36.97;33.27;;;18.50;99.90;;;;;;6277315;28;20239;-61
2022/10/15 14:40:57;;;;;;;38.27;34.27;;;18.40;99.90;;;;;;6277481;28;20224;-60
2022/10/15 14:44:17;;;;;;;39.17;35.07;;;18.30;99.90;;;;;;6276561;28;20639;-60
2022/10/15 14:47:25;;;;;;;40.30;35.40;;;18.30;99.90;;;;;;6277673;28;20471;-60
2022/10/15 14:50:32;;;;;;;38.17;34.03;;;18.20;99.90;;;;;;6276890;28;20546;-61
2022/10/15 14:53:38;;;;;;;41.53;37.23;;;18.10;99.90;;;;;;6277283;28;20235;-60
2022/10/15 14:56:42;;;;;;;37.73;33.73;;;18.20;99.90;;;;;;6277321;28;20478;-61
2022/10/15 14:59:45;;;;;;;38.27;34.40;;;18.10;99.90;;;;;;6276798;28;20983;-61
2022/10/15 15:02:50;;;;;;;38.20;34.13;;;18.10;99.90;;;;;;6277386;28;20239;-61
2022/10/15 15:05:56;;;;;;;39.53;35.37;;;18.20;99.90;;;;;;6276420;28;20235;-61
2022/10/15 15:08:59;;;;;;;38.03;34.17;;;18.00;99.90;;;;;;6278422;28;20300;-61
2022/10/15 15:12:02;;;;;;;40.93;36.60;;;18.00;99.90;;;;;;6275230;28;20474;-61
2022/10/15 15:15:12;;;;;;;38.10;34.00;;;18.00;99.90;;;;;;6278741;28;20820;-60
2022/10/15 15:18:17;;;;;;;38.83;34.50;;;18.00;99.90;;;;;;6265497;28;20290;-60
2022/10/15 15:21:23;;;;;;;35.87;32.43;;;18.00;99.90;;;;;;6251953;28;20467;-61
2022/10/15 15:24:26;;;;;;;38.17;34.17;;;18.00;99.90;;;;;;6245201;28;20248;-60
2022/10/15 15:27:35;;;;;;;40.13;36.10;;;18.00;99.90;;;;;;6227167;28;20468;-60
2022/10/15 15:30:40;;;;;;;39.40;35.40;;;18.00;99.90;;;;;;6227550;28;20992;-65
2022/10/15 15:33:45;;;;;;;38.33;34.43;;;18.00;99.90;;;;;;6227193;28;20237;-60
2022/10/15 15:36:48;;;;;;;40.97;36.67;;;17.90;99.90;;;;;;6227641;28;20476;-60
2022/10/15 15:39:52;;;;;;;38.87;34.37;;;17.80;99.90;;;;;;6226206;28;20973;-61
2022/10/15 15:42:55;;;;;;;38.33;34.20;;;17.70;99.90;;;;;;6226585;28;20528;-60
2022/10/15 15:45:58;;;;;;;40.17;36.10;;;17.70;99.90;;;;;;6226790;28;20487;-61
2022/10/15 15:49:03;;;;;;;44.07;39.40;;;17.60;99.90;;;;;;6226931;28;20472;-60